createdAt,value
2022-10-20T00:02:44.808Z,4.93
2022-10-20T00:07:56.228Z,4.83
2022-10-20T00:13:07.589Z,4.40
2022-10-20T00:18:17.769Z,2.07
2022-10-20T00:23:31.708Z,4.43
2022-10-20T00:28:41.480Z,5.17
2022-10-20T00:33:52.766Z,3.70
2022-10-20T00:39:08.158Z,3.53
2022-10-20T00:44:22.370Z,6.90
2022-10-20T00:49:34.374Z,5.80
2022-10-20T00:54:45.916Z,5.00
2022-10-20T00:59:57.114Z,5.03
2022-10-20T01:05:08.698Z,2.63
2022-10-20T01:10:20.217Z,6.67
2022-10-20T01:15:35.002Z,4.57
2022-10-20T01:20:46.008Z,6.73
2022-10-20T01:25:58.688Z,3.23
2022-10-20T01:31:11.223Z,5.70
2022-10-20T01:36:23.824Z,3.93
2022-10-20T01:41:37.674Z,4.60
2022-10-20T01:46:48.837Z,6.50
2022-10-20T01:51:58.738Z,2.43
2022-10-20T01:57:10.808Z,3.53
2022-10-20T02:02:22.297Z,5.33
2022-10-20T02:07:35.007Z,6.20
2022-10-20T02:12:46.929Z,4.33
2022-10-20T02:17:59.037Z,4.83
2022-10-20T02:23:10.587Z,4.10
2022-10-20T02:28:21.431Z,4.87
2022-10-20T02:33:32.477Z,3.47
2022-10-20T02:38:43.327Z,5.20
2022-10-20T02:43:54.899Z,5.00
2022-10-20T02:49:05.063Z,3.90
2022-10-20T02:54:15.248Z,2.97
2022-10-20T02:59:25.049Z,4.23
2022-10-20T03:04:35.600Z,6.53
2022-10-20T03:09:45.837Z,4.57
2022-10-20T03:14:55.930Z,4.50
2022-10-20T03:20:06.791Z,3.90
2022-10-20T03:25:20.863Z,4.90
2022-10-20T03:30:33.476Z,6.33
2022-10-20T03:35:46.358Z,4.00
2022-10-20T03:40:58.211Z,5.63
2022-10-20T03:46:13.069Z,4.97
2022-10-20T03:51:23.277Z,3.93
2022-10-20T03:56:33.549Z,3.63
2022-10-20T04:01:46.209Z,5.20
2022-10-20T04:06:57.174Z,2.40
2022-10-20T04:12:07.603Z,5.47
2022-10-20T04:17:18.538Z,3.47
2022-10-20T04:22:29.882Z,3.83
2022-10-20T04:27:42.149Z,5.93
2022-10-20T04:32:52.440Z,7.83
2022-10-20T04:38:03.138Z,3.23
2022-10-20T04:43:14.428Z,5.63
2022-10-20T04:48:24.369Z,4.03
2022-10-20T04:53:34.250Z,7.17
2022-10-20T04:58:44.017Z,8.60
2022-10-20T05:03:54.559Z,6.40
2022-10-20T05:09:06.754Z,5.90
2022-10-20T05:14:15.721Z,8.43
2022-10-20T05:19:28.989Z,4.67
2022-10-20T05:24:40.419Z,5.30
2022-10-20T05:29:53.438Z,7.77
2022-10-20T05:35:07.397Z,6.27
2022-10-20T05:40:17.715Z,7.63
2022-10-20T05:45:31.124Z,7.93
2022-10-20T05:50:41.456Z,5.83
2022-10-20T05:55:51.192Z,7.47
2022-10-20T06:01:07.120Z,5.30
2022-10-20T06:06:22.863Z,5.00
2022-10-20T06:11:39.343Z,6.00
2022-10-20T06:16:55.379Z,11.17
2022-10-20T06:22:06.998Z,6.77
2022-10-20T06:27:21.982Z,6.13
2022-10-20T06:32:31.797Z,7.40
2022-10-20T06:37:43.904Z,11.27
2022-10-20T06:42:53.354Z,10.77
2022-10-20T06:48:03.575Z,16.73
2022-10-20T06:53:13.801Z,7.93
2022-10-20T06:58:22.468Z,15.60
2022-10-20T07:03:33.458Z,14.30
2022-10-20T07:08:47.151Z,11.73
2022-10-20T07:13:55.979Z,12.07
2022-10-20T07:19:07.000Z,12.60
2022-10-20T07:24:17.759Z,9.13
2022-10-20T07:29:29.671Z,11.27
2022-10-20T07:34:45.865Z,15.83
2022-10-20T07:39:54.887Z,9.20
2022-10-20T07:45:05.430Z,11.10
2022-10-20T07:50:15.438Z,11.13
2022-10-20T07:55:38.650Z,10.60
2022-10-20T08:00:43.669Z,14.90
2022-10-20T08:05:53.847Z,15.30
2022-10-20T08:11:10.364Z,18.03
2022-10-20T08:21:53.259Z,15.77
2022-10-20T08:27:06.974Z,14.53
2022-10-20T08:32:19.198Z,12.93
2022-10-20T08:37:31.901Z,16.73
2022-10-20T08:42:47.158Z,9.67
2022-10-20T08:47:59.444Z,12.93
2022-10-20T08:53:12.160Z,12.00
2022-10-20T08:58:25.972Z,10.83
2022-10-20T09:03:38.845Z,20.30
2022-10-20T09:08:51.395Z,14.20
2022-10-20T09:14:00.198Z,17.03
2022-10-20T09:19:16.092Z,15.83
2022-10-20T09:24:27.948Z,14.07
2022-10-20T09:29:45.259Z,13.00
2022-10-20T09:35:03.200Z,15.07
2022-10-20T09:40:17.322Z,14.43
2022-10-20T09:45:34.699Z,17.90
2022-10-20T09:50:47.455Z,13.60
2022-10-20T09:55:57.665Z,13.73
2022-10-20T10:01:08.823Z,16.20
2022-10-20T10:06:25.937Z,19.77
2022-10-20T10:11:41.460Z,16.57
2022-10-20T10:16:56.768Z,16.03
2022-10-20T10:22:07.967Z,15.07
2022-10-20T10:27:26.406Z,15.10
2022-10-20T10:32:53.495Z,15.13
2022-10-20T10:38:08.681Z,17.33
2022-10-20T10:43:28.518Z,17.83
2022-10-20T10:48:49.232Z,13.43
2022-10-20T10:54:08.020Z,15.23
2022-10-20T10:59:18.632Z,16.20
2022-10-20T11:04:29.848Z,18.90
2022-10-20T11:09:43.210Z,15.87
2022-10-20T11:14:58.698Z,18.07
2022-10-20T11:20:11.935Z,14.83
2022-10-20T11:25:21.497Z,16.63
2022-10-20T11:30:36.489Z,15.10
2022-10-20T11:35:48.317Z,19.13
2022-10-20T11:41:05.236Z,10.67
2022-10-20T11:46:16.324Z,23.53
2022-10-20T11:51:31.513Z,15.33
2022-10-20T11:56:43.677Z,18.13
2022-10-20T12:01:58.254Z,16.50
2022-10-20T12:07:12.026Z,21.80
2022-10-20T12:12:28.559Z,16.97
2022-10-20T12:17:42.584Z,12.87
2022-10-20T12:22:53.958Z,18.37
2022-10-20T12:28:06.547Z,18.53
2022-10-20T12:33:25.149Z,19.67
2022-10-20T12:38:35.823Z,18.67
2022-10-20T12:43:49.341Z,17.80
2022-10-20T12:49:05.521Z,16.20
2022-10-20T12:54:19.800Z,17.40
2022-10-20T12:59:32.286Z,19.60
2022-10-20T13:04:46.722Z,22.70
2022-10-20T13:10:04.499Z,16.90
2022-10-20T13:15:20.493Z,18.27
2022-10-20T13:20:31.861Z,18.63
2022-10-20T13:25:49.348Z,17.30
2022-10-20T13:31:05.612Z,18.33
2022-10-20T13:36:20.489Z,14.23
2022-10-20T13:41:36.285Z,17.57
2022-10-20T13:46:51.558Z,21.33
2022-10-20T13:52:03.129Z,19.57
2022-10-20T13:57:17.037Z,17.60
2022-10-20T14:02:29.200Z,16.07
2022-10-20T14:08:04.555Z,16.63
2022-10-20T14:13:17.547Z,21.17
2022-10-20T14:18:33.152Z,22.70
2022-10-20T14:23:45.155Z,16.77
2022-10-20T14:28:56.144Z,19.37
2022-10-20T14:34:08.260Z,16.57
2022-10-20T14:39:20.384Z,24.40
2022-10-20T14:44:32.194Z,20.13
2022-10-20T14:49:50.091Z,12.17
2022-10-20T14:54:57.393Z,24.17
2022-10-20T15:00:08.529Z,15.43
2022-10-20T15:05:20.330Z,18.30
2022-10-20T15:10:35.773Z,18.80
2022-10-20T15:15:46.069Z,19.20
2022-10-20T15:20:56.499Z,22.47
2022-10-20T15:26:10.643Z,13.13
2022-10-20T15:31:24.804Z,16.20
2022-10-20T15:36:42.076Z,18.73
2022-10-20T15:41:53.836Z,16.77
2022-10-20T15:47:03.025Z,16.37
2022-10-20T15:52:27.475Z,15.10
2022-10-20T15:57:39.239Z,21.17
2022-10-20T16:02:52.250Z,14.93
2022-10-20T16:08:02.382Z,17.27
2022-10-20T16:13:18.386Z,21.00
2022-10-20T16:18:32.853Z,16.33
2022-10-20T16:23:45.297Z,18.90
2022-10-20T16:28:55.248Z,11.10
2022-10-20T16:34:05.678Z,17.13
2022-10-20T16:39:17.742Z,16.93
2022-10-20T16:44:28.197Z,16.07
2022-10-20T16:49:42.077Z,12.07
2022-10-20T16:54:57.471Z,14.73
2022-10-20T17:00:07.969Z,12.13
2022-10-20T17:05:18.304Z,18.30
2022-10-20T17:10:30.003Z,17.60
2022-10-20T17:15:43.360Z,15.40
2022-10-20T17:20:59.162Z,18.47
2022-10-20T17:26:08.776Z,13.67
2022-10-20T17:31:19.846Z,17.17
2022-10-20T17:36:33.978Z,12.17
2022-10-20T17:41:46.266Z,9.53
2022-10-20T17:46:55.337Z,15.30
2022-10-20T17:52:06.269Z,13.83
2022-10-20T17:57:17.872Z,15.03
2022-10-20T18:02:30.382Z,10.73
2022-10-20T18:07:39.445Z,14.20
2022-10-20T18:12:52.079Z,15.33
2022-10-20T18:18:04.198Z,16.77
2022-10-20T18:23:21.607Z,16.00
2022-10-20T18:28:35.816Z,14.33
2022-10-20T18:33:47.845Z,14.10
2022-10-20T18:38:59.602Z,14.87
2022-10-20T18:44:13.402Z,13.00
2022-10-20T18:49:29.152Z,13.00
2022-10-20T18:54:43.659Z,15.30
2022-10-20T18:59:55.212Z,15.77
2022-10-20T19:05:06.906Z,16.63
2022-10-20T19:10:18.941Z,19.90
2022-10-20T19:15:27.824Z,13.20
2022-10-20T19:20:38.978Z,17.67
2022-10-20T19:25:49.108Z,20.60
2022-10-20T19:31:18.405Z,17.97
2022-10-20T19:36:30.084Z,16.83
2022-10-20T19:41:42.226Z,19.83
2022-10-20T19:46:56.179Z,16.30
2022-10-20T19:52:09.780Z,17.30
2022-10-20T19:57:20.818Z,12.17
2022-10-20T20:02:34.907Z,15.20
2022-10-20T20:07:50.053Z,17.03
2022-10-20T20:13:04.238Z,15.33
2022-10-20T20:18:15.444Z,11.07
2022-10-20T20:23:40.740Z,14.73
2022-10-20T20:28:38.003Z,16.30
2022-10-20T20:33:48.750Z,15.53
2022-10-20T20:39:02.873Z,12.17
2022-10-20T20:44:17.692Z,17.20
2022-10-20T20:49:27.679Z,15.10
2022-10-20T20:54:41.704Z,20.97
2022-10-20T20:59:53.316Z,16.87
2022-10-20T21:05:08.911Z,13.47
2022-10-20T21:10:17.313Z,17.57
2022-10-20T21:15:30.551Z,16.50
2022-10-20T21:20:43.463Z,15.10
2022-10-20T21:25:58.390Z,14.53
2022-10-20T21:31:10.824Z,17.33
2022-10-20T21:36:20.487Z,14.93
2022-10-20T21:41:36.416Z,14.93
2022-10-20T21:46:49.092Z,18.63
2022-10-20T21:51:59.218Z,15.27
2022-10-20T21:57:13.861Z,15.73
2022-10-20T22:02:22.763Z,11.60
2022-10-20T22:07:36.911Z,18.63
2022-10-20T22:12:47.262Z,15.97
2022-10-20T22:17:58.199Z,19.70
2022-10-20T22:23:10.141Z,14.63
2022-10-20T22:28:20.328Z,14.20
2022-10-20T22:33:30.829Z,13.23
2022-10-20T22:38:40.938Z,15.87
2022-10-20T22:43:54.759Z,11.03
2022-10-20T22:49:07.879Z,16.53
2022-10-20T22:54:21.947Z,15.70
2022-10-20T22:59:34.695Z,13.20
2022-10-20T23:04:46.878Z,19.30
2022-10-20T23:09:58.663Z,18.50
2022-10-20T23:15:09.035Z,16.23
2022-10-20T23:20:20.664Z,14.70
2022-10-20T23:25:31.373Z,15.57
2022-10-20T23:30:43.765Z,17.87
2022-10-20T23:35:54.488Z,11.13
2022-10-20T23:41:05.568Z,13.90
2022-10-20T23:46:19.799Z,13.47
2022-10-20T23:51:30.323Z,15.90
2022-10-20T23:56:41.358Z,16.13
